createdAt,value
2022-11-15T00:01:20.582Z,100701.66
2022-11-15T00:06:42.376Z,100704.94
2022-11-15T00:12:05.756Z,100698.00
2022-11-15T00:17:27.736Z,100704.13
2022-11-15T00:22:49.559Z,100697.66
2022-11-15T00:28:12.639Z,100691.16
2022-11-15T00:33:34.956Z,100686.12
2022-11-15T00:38:57.198Z,100687.25
2022-11-15T00:44:20.334Z,100678.00
2022-11-15T00:49:42.860Z,100670.66
2022-11-15T00:55:05.290Z,100666.38
2022-11-15T01:00:28.566Z,100667.47
2022-11-15T01:05:50.543Z,100666.34
2022-11-15T01:11:14.046Z,100667.31
2022-11-15T01:16:37.449Z,100671.97
2022-11-15T01:21:59.138Z,100675.66
2022-11-15T01:27:20.946Z,100665.69
2022-11-15T01:32:44.163Z,100673.16
2022-11-15T01:38:05.926Z,100665.03
2022-11-15T01:43:29.794Z,100667.34
2022-11-15T01:48:55.279Z,100668.69
2022-11-15T01:54:21.469Z,100658.97
2022-11-15T01:59:46.757Z,100660.97
2022-11-15T02:05:10.788Z,100654.53
2022-11-15T02:10:32.931Z,100647.19
2022-11-15T02:16:12.355Z,100641.25
2022-11-15T02:21:42.379Z,100632.22
2022-11-15T02:27:29.548Z,100630.72
2022-11-15T02:32:56.801Z,100626.78
2022-11-15T02:38:24.742Z,100627.75
2022-11-15T02:43:59.907Z,100630.44
2022-11-15T02:49:25.238Z,100618.59
2022-11-15T02:54:56.275Z,100609.31
2022-11-15T03:00:20.401Z,100610.37
2022-11-15T03:05:54.325Z,100601.09
2022-11-15T03:11:19.392Z,100604.69
2022-11-15T03:16:47.346Z,100612.44
2022-11-15T03:22:13.714Z,100607.53
2022-11-15T03:27:40.431Z,100606.81
2022-11-15T03:33:06.027Z,100601.72
2022-11-15T03:38:33.027Z,100596.56
2022-11-15T03:44:01.624Z,100590.41
2022-11-15T03:49:29.517Z,100595.41
2022-11-15T03:54:58.392Z,100585.03
2022-11-15T04:00:20.527Z,100588.50
2022-11-15T04:05:42.460Z,100602.19
2022-11-15T04:11:05.555Z,100602.38
2022-11-15T04:16:27.271Z,100609.28
2022-11-15T04:22:06.350Z,100603.13
2022-11-15T04:27:29.703Z,100604.09
2022-11-15T04:32:51.586Z,100611.00
2022-11-15T04:38:13.756Z,100617.31
2022-11-15T04:43:37.230Z,100610.56
2022-11-15T04:48:59.572Z,100613.22
2022-11-15T04:54:21.176Z,100611.72
2022-11-15T04:59:44.327Z,100614.50
2022-11-15T05:05:06.845Z,100608.50
2022-11-15T05:10:28.755Z,100607.69
2022-11-15T05:15:51.844Z,100612.88
2022-11-15T05:21:16.234Z,100605.91
2022-11-15T05:26:38.234Z,100605.12
2022-11-15T05:32:01.802Z,100599.87
2022-11-15T05:37:23.413Z,100617.13
2022-11-15T05:42:46.185Z,100614.62
2022-11-15T05:48:11.763Z,100617.13
2022-11-15T05:53:34.415Z,100612.88
2022-11-15T05:58:59.708Z,100614.62
2022-11-15T06:04:23.044Z,100620.66
2022-11-15T06:09:45.050Z,100619.91
2022-11-15T06:15:07.497Z,100617.13
2022-11-15T06:20:31.990Z,100619.78
2022-11-15T06:25:54.270Z,100619.87
2022-11-15T06:31:16.025Z,100621.50
2022-11-15T06:36:39.482Z,100624.78
2022-11-15T06:42:01.581Z,100635.12
2022-11-15T06:47:23.167Z,100636.06
2022-11-15T06:52:48.863Z,100639.31
2022-11-15T06:58:10.506Z,100639.31
2022-11-15T07:03:32.682Z,100639.12
2022-11-15T07:08:56.551Z,100633.97
2022-11-15T07:14:18.557Z,100630.34
2022-11-15T07:19:40.331Z,100629.75
2022-11-15T07:25:03.627Z,100632.75
2022-11-15T07:30:26.977Z,100632.06
2022-11-15T07:35:50.365Z,100632.09
2022-11-15T07:41:13.620Z,100631.13
2022-11-15T07:46:35.367Z,100633.78
2022-11-15T07:51:57.092Z,100640.56
2022-11-15T07:57:20.106Z,100648.34
2022-11-15T08:02:42.426Z,100652.56
2022-11-15T08:08:05.188Z,100649.09
2022-11-15T08:13:29.025Z,100630.81
2022-11-15T08:18:51.319Z,100627.47
2022-11-15T08:24:12.987Z,100632.00
2022-11-15T08:29:36.953Z,100615.59
2022-11-15T08:34:59.054Z,100617.72
2022-11-15T08:40:21.161Z,100612.72
2022-11-15T08:45:44.579Z,100598.34
2022-11-15T08:51:06.628Z,100592.59
2022-11-15T08:56:28.538Z,100581.69
2022-11-15T09:01:51.783Z,100568.94
2022-11-15T09:07:15.416Z,100564.75
2022-11-15T09:12:37.446Z,100544.78
2022-11-15T09:18:01.471Z,100557.72
2022-11-15T09:23:23.018Z,100544.06
2022-11-15T09:28:44.684Z,100540.88
2022-11-15T09:34:07.783Z,100528.37
2022-11-15T09:39:29.491Z,100521.00
2022-11-15T09:45:09.272Z,100528.44
2022-11-15T09:50:38.472Z,100531.84
2022-11-15T09:55:52.683Z,100526.25
2022-11-15T10:01:00.202Z,100521.06
2022-11-15T10:06:08.519Z,100512.25
2022-11-15T10:17:04.438Z,100513.03
2022-11-15T10:22:23.236Z,100504.19
2022-11-15T10:27:27.106Z,100473.66
2022-11-15T10:32:31.938Z,100475.88
2022-11-15T10:37:37.028Z,100482.34
2022-11-15T10:42:40.793Z,100469.28
2022-11-15T10:47:44.548Z,100474.91
2022-11-15T10:52:49.768Z,100464.69
2022-11-15T10:57:56.344Z,100455.91
2022-11-15T11:03:04.750Z,100451.50
2022-11-15T11:08:22.399Z,100428.47
2022-11-15T11:13:28.167Z,100419.87
2022-11-15T11:18:37.259Z,100397.69
2022-11-15T11:23:50.496Z,100386.09
2022-11-15T11:29:03.687Z,100380.84
2022-11-15T11:34:17.578Z,100376.25
2022-11-15T11:39:33.860Z,100372.06
2022-11-15T11:44:51.540Z,100366.37
2022-11-15T11:50:01.371Z,100349.03
2022-11-15T11:55:16.851Z,100342.72
2022-11-15T12:00:22.905Z,100324.94
2022-11-15T12:05:33.276Z,100310.38
2022-11-15T12:10:41.359Z,100304.69
2022-11-15T12:15:49.433Z,100303.16
2022-11-15T12:20:58.500Z,100284.13
2022-11-15T12:26:10.416Z,100288.78
2022-11-15T12:31:18.977Z,100289.34
2022-11-15T12:36:38.521Z,100278.91
2022-11-15T12:41:45.934Z,100278.53
2022-11-15T12:47:24.484Z,100267.06
2022-11-15T12:52:28.199Z,100251.50
2022-11-15T12:57:45.588Z,100247.81
2022-11-15T13:02:49.580Z,100221.62
2022-11-15T13:08:00.448Z,100227.69
2022-11-15T13:13:08.571Z,100208.56
2022-11-15T13:18:31.092Z,100210.97
2022-11-15T13:23:34.986Z,100193.41
2022-11-15T13:28:45.124Z,100190.31
2022-11-15T13:33:48.955Z,100176.75
2022-11-15T13:39:00.866Z,100162.91
2022-11-15T13:44:20.543Z,100152.28
2022-11-15T13:49:31.709Z,100138.31
2022-11-15T13:54:38.872Z,100135.63
2022-11-15T13:59:50.955Z,100120.78
2022-11-15T14:04:57.569Z,100111.97
2022-11-15T14:10:19.760Z,100111.22
2022-11-15T14:15:31.959Z,100094.59
2022-11-15T14:20:39.093Z,100087.56
2022-11-15T14:25:54.856Z,100073.84
2022-11-15T14:31:01.501Z,100060.81
2022-11-15T14:36:07.730Z,100057.31
2022-11-15T14:41:20.652Z,100052.00
2022-11-15T14:46:25.779Z,100041.69
2022-11-15T14:51:29.535Z,100033.03
2022-11-15T14:56:33.276Z,100027.75
2022-11-15T15:01:38.290Z,100025.81
2022-11-15T15:06:42.171Z,100012.88
2022-11-15T15:11:46.765Z,100008.53
2022-11-15T15:16:51.848Z,99999.63
2022-11-15T15:21:55.493Z,99994.34
2022-11-15T15:26:59.272Z,99997.59
2022-11-15T15:32:04.945Z,99977.00
2022-11-15T15:37:10.407Z,99979.44
2022-11-15T15:42:14.158Z,99975.91
2022-11-15T15:47:21.828Z,99978.56
2022-11-15T15:52:26.077Z,99977.59
2022-11-15T15:57:29.855Z,99973.97
2022-11-15T16:02:39.264Z,99973.81
2022-11-15T16:07:45.103Z,99973.00
2022-11-15T16:12:49.130Z,99970.00
2022-11-15T16:17:55.643Z,99965.63
2022-11-15T16:23:02.090Z,99957.75
2022-11-15T16:28:18.718Z,99959.16
2022-11-15T16:33:23.929Z,99964.78
2022-11-15T16:38:28.001Z,99971.63
2022-11-15T16:43:31.682Z,99957.31
2022-11-15T16:48:37.253Z,99954.47
2022-11-15T16:53:41.256Z,99962.25
2022-11-15T16:58:45.056Z,99957.06
2022-11-15T17:03:50.080Z,99961.31
2022-11-15T17:08:53.800Z,99969.56
2022-11-15T17:13:59.271Z,99971.94
2022-11-15T17:19:04.398Z,99967.41
2022-11-15T17:24:08.410Z,99963.00
2022-11-15T17:29:12.276Z,99956.22
2022-11-15T17:34:17.326Z,99957.06
2022-11-15T17:39:21.122Z,99953.44
2022-11-15T17:44:24.789Z,99948.37
2022-11-15T17:49:29.876Z,99948.84
2022-11-15T17:54:33.586Z,99949.81
2022-11-15T17:59:37.294Z,99946.53
2022-11-15T18:04:42.243Z,99942.00
2022-11-15T18:09:45.997Z,99940.41
2022-11-15T18:14:49.682Z,99931.00
2022-11-15T18:19:54.842Z,99927.56
2022-11-15T18:24:58.685Z,99924.97
2022-11-15T18:30:02.540Z,99918.00
2022-11-15T18:35:09.273Z,99920.53
2022-11-15T18:40:13.167Z,99918.00
2022-11-15T18:45:21.527Z,99919.59
2022-11-15T18:50:28.963Z,99917.16
2022-11-15T18:55:32.743Z,99913.75
2022-11-15T19:00:36.547Z,99914.69
2022-11-15T19:05:41.655Z,99920.72
2022-11-15T19:10:45.371Z,99917.34
2022-11-15T19:15:49.148Z,99913.84
2022-11-15T19:20:55.180Z,99914.63
2022-11-15T19:26:00.125Z,99894.97
2022-11-15T19:31:07.326Z,99894.00
2022-11-15T19:36:14.750Z,99901.03
2022-11-15T19:41:20.545Z,99898.44
2022-11-15T19:46:25.007Z,99899.44
2022-11-15T19:51:31.309Z,99901.13
2022-11-15T19:56:36.161Z,99908.72
2022-11-15T20:01:40.200Z,99902.03
2022-11-15T20:06:45.465Z,99886.53
2022-11-15T20:11:49.143Z,99889.00
2022-11-15T20:16:54.594Z,99883.22
2022-11-15T20:21:59.812Z,99877.00
2022-11-15T20:27:03.587Z,99871.19
2022-11-15T20:32:07.341Z,99874.69
2022-11-15T20:37:12.426Z,99870.28
2022-11-15T20:42:16.162Z,99870.28
2022-11-15T20:47:19.865Z,99865.34
2022-11-15T20:52:25.035Z,99868.75
2022-11-15T20:57:28.799Z,99876.56
2022-11-15T21:02:33.143Z,99867.94
2022-11-15T21:07:38.235Z,99864.44
2022-11-15T21:12:41.955Z,99863.56
2022-11-15T21:17:45.715Z,99851.59
2022-11-15T21:22:50.876Z,99849.88
2022-11-15T21:27:54.700Z,99841.31
2022-11-15T21:32:58.543Z,99831.81
2022-11-15T21:38:03.607Z,99834.22
2022-11-15T21:43:07.305Z,99833.37
2022-11-15T21:48:11.020Z,99825.72
2022-11-15T21:53:16.091Z,99824.91
2022-11-15T21:58:20.278Z,99825.59
2022-11-15T22:03:24.006Z,99829.09
2022-11-15T22:08:29.413Z,99815.31
2022-11-15T22:13:33.159Z,99820.56
2022-11-15T22:18:37.672Z,99805.06
2022-11-15T22:23:43.967Z,99797.25
2022-11-15T22:28:48.071Z,99799.84
2022-11-15T22:33:51.813Z,99789.47
2022-11-15T22:38:56.877Z,99792.03
2022-11-15T22:44:00.569Z,99787.81
2022-11-15T22:49:04.334Z,99792.19
2022-11-15T22:54:09.511Z,99782.63
2022-11-15T22:59:13.267Z,99781.72
2022-11-15T23:04:17.122Z,99793.75
2022-11-15T23:09:22.202Z,99794.66
2022-11-15T23:14:26.313Z,99804.97
2022-11-15T23:19:30.044Z,99797.25
2022-11-15T23:24:35.237Z,99799.84
2022-11-15T23:29:52.912Z,99787.75
2022-11-15T23:34:56.629Z,99783.44
2022-11-15T23:40:01.771Z,99793.75
2022-11-15T23:45:06.375Z,99796.41
2022-11-15T23:50:10.471Z,99790.41
2022-11-15T23:55:15.542Z,99766.09
